sensor_id;sensor_type;location;lat;lon;timestamp;temperature;humidity
2010;DHT22;1008;47.404;8.502;2023-04-03T00:02:00;8.80;99.90
2010;DHT22;1008;47.404;8.502;2023-04-03T00:04:27;8.60;99.90
2010;DHT22;1008;47.404;8.502;2023-04-03T00:06:55;8.70;99.90
2010;DHT22;1008;47.404;8.502;2023-04-03T00:09:22;8.50;99.90
2010;DHT22;1008;47.404;8.502;2023-04-03T00:11:48;8.50;99.90
2010;DHT22;1008;47.404;8.502;2023-04-03T00:14:15;8.60;99.90
2010;DHT22;1008;47.404;8.502;2023-04-03T00:16:42;8.70;99.90
2010;DHT22;1008;47.404;8.502;2023-04-03T00:19:10;8.70;99.90
2010;DHT22;1008;47.404;8.502;2023-04-03T00:21:38;8.70;99.90
2010;DHT22;1008;47.404;8.502;2023-04-03T00:24:06;8.70;99.90
2010;DHT22;1008;47.404;8.502;2023-04-03T00:26:33;8.70;99.90
2010;DHT22;1008;47.404;8.502;2023-04-03T00:28:59;8.80;99.90
2010;DHT22;1008;47.404;8.502;2023-04-03T00:31:26;8.70;99.90
2010;DHT22;1008;47.404;8.502;2023-04-03T00:33:53;8.60;99.90
2010;DHT22;1008;47.404;8.502;2023-04-03T00:36:21;8.50;99.90
2010;DHT22;1008;47.404;8.502;2023-04-03T00:38:48;8.40;99.90
2010;DHT22;1008;47.404;8.502;2023-04-03T00:41:14;8.30;99.90
2010;DHT22;1008;47.404;8.502;2023-04-03T00:43:41;8.20;99.90
2010;DHT22;1008;47.404;8.502;2023-04-03T00:46:08;8.30;99.90
2010;DHT22;1008;47.404;8.502;2023-04-03T00:48:38;8.10;99.90
2010;DHT22;1008;47.404;8.502;2023-04-03T00:51:08;8.10;99.90
2010;DHT22;1008;47.404;8.502;2023-04-03T00:53:41;8.10;99.90
2010;DHT22;1008;47.404;8.502;2023-04-03T00:56:11;8.10;99.90
2010;DHT22;1008;47.404;8.502;2023-04-03T00:58:41;8.10;99.90
2010;DHT22;1008;47.404;8.502;2023-04-03T01:01:13;8.00;99.90
2010;DHT22;1008;47.404;8.502;2023-04-03T01:03:41;7.90;99.90
2010;DHT22;1008;47.404;8.502;2023-04-03T01:06:08;7.90;99.90
2010;DHT22;1008;47.404;8.502;2023-04-03T01:08:36;7.80;99.90
2010;DHT22;1008;47.404;8.502;2023-04-03T01:11:04;7.70;99.90
2010;DHT22;1008;47.404;8.502;2023-04-03T01:13:33;7.70;99.90
2010;DHT22;1008;47.404;8.502;2023-04-03T01:16:01;7.70;99.90
2010;DHT22;1008;47.404;8.502;2023-04-03T01:18:28;7.60;99.90
2010;DHT22;1008;47.404;8.502;2023-04-03T01:21:21;7.50;99.90
2010;DHT22;1008;47.404;8.502;2023-04-03T01:24:07;7.50;99.90
2010;DHT22;1008;47.404;8.502;2023-04-03T01:26:38;7.30;99.90
2010;DHT22;1008;47.404;8.502;2023-04-03T01:29:05;7.30;99.90
2010;DHT22;1008;47.404;8.502;2023-04-03T01:31:46;7.30;99.90
2010;DHT22;1008;47.404;8.502;2023-04-03T01:34:13;7.20;99.90
2010;DHT22;1008;47.404;8.502;2023-04-03T01:36:40;7.20;99.90
2010;DHT22;1008;47.404;8.502;2023-04-03T01:39:07;7.30;99.90
2010;DHT22;1008;47.404;8.502;2023-04-03T01:41:34;7.10;99.90
2010;DHT22;1008;47.404;8.502;2023-04-03T01:44:01;7.10;99.90
2010;DHT22;1008;47.404;8.502;2023-04-03T01:46:27;7.00;99.90
2010;DHT22;1008;47.404;8.502;2023-04-03T01:48:55;7.00;99.90
2010;DHT22;1008;47.404;8.502;2023-04-03T01:51:22;7.00;99.90
2010;DHT22;1008;47.404;8.502;2023-04-03T01:53:49;6.90;99.90
2010;DHT22;1008;47.404;8.502;2023-04-03T01:56:17;6.90;99.90
2010;DHT22;1008;47.404;8.502;2023-04-03T01:58:43;7.00;99.90
2010;DHT22;1008;47.404;8.502;2023-04-03T02:01:10;6.80;99.90
2010;DHT22;1008;47.404;8.502;2023-04-03T02:03:37;6.80;99.90
2010;DHT22;1008;47.404;8.502;2023-04-03T02:06:06;6.80;99.90
2010;DHT22;1008;47.404;8.502;2023-04-03T02:08:32;6.70;99.90
2010;DHT22;1008;47.404;8.502;2023-04-03T02:10:59;6.60;99.90
2010;DHT22;1008;47.404;8.502;2023-04-03T02:13:26;6.50;99.90
2010;DHT22;1008;47.404;8.502;2023-04-03T02:15:53;6.40;99.90
2010;DHT22;1008;47.404;8.502;2023-04-03T02:18:20;6.30;99.90
2010;DHT22;1008;47.404;8.502;2023-04-03T02:20:47;6.30;99.90
2010;DHT22;1008;47.404;8.502;2023-04-03T02:23:15;6.30;99.90
2010;DHT22;1008;47.404;8.502;2023-04-03T02:25:41;6.20;99.90
2010;DHT22;1008;47.404;8.502;2023-04-03T02:28:08;6.10;99.90
2010;DHT22;1008;47.404;8.502;2023-04-03T02:30:35;6.30;99.90
2010;DHT22;1008;47.404;8.502;2023-04-03T02:33:01;6.20;99.90
2010;DHT22;1008;47.404;8.502;2023-04-03T02:35:28;6.40;99.90
2010;DHT22;1008;47.404;8.502;2023-04-03T02:37:55;6.40;99.90
2010;DHT22;1008;47.404;8.502;2023-04-03T02:40:23;6.50;99.90
2010;DHT22;1008;47.404;8.502;2023-04-03T02:42:50;6.60;99.90
2010;DHT22;1008;47.404;8.502;2023-04-03T02:45:17;6.50;99.90
2010;DHT22;1008;47.404;8.502;2023-04-03T02:47:43;6.90;99.90
2010;DHT22;1008;47.404;8.502;2023-04-03T02:50:10;6.50;99.90
2010;DHT22;1008;47.404;8.502;2023-04-03T02:52:37;6.50;99.90
2010;DHT22;1008;47.404;8.502;2023-04-03T02:55:04;6.40;99.90
2010;DHT22;1008;47.404;8.502;2023-04-03T02:57:32;6.50;99.90
2010;DHT22;1008;47.404;8.502;2023-04-03T02:59:59;6.50;99.90
2010;DHT22;1008;47.404;8.502;2023-04-03T03:02:26;6.40;99.90
2010;DHT22;1008;47.404;8.502;2023-04-03T03:04:53;6.40;99.90
2010;DHT22;1008;47.404;8.502;2023-04-03T03:07:19;6.30;99.90
2010;DHT22;1008;47.404;8.502;2023-04-03T03:09:46;6.40;99.90
2010;DHT22;1008;47.404;8.502;2023-04-03T03:12:13;6.40;99.90
2010;DHT22;1008;47.404;8.502;2023-04-03T03:14:41;6.40;99.90
2010;DHT22;1008;47.404;8.502;2023-04-03T03:17:08;6.30;99.90
2010;DHT22;1008;47.404;8.502;2023-04-03T03:19:35;6.50;99.90
2010;DHT22;1008;47.404;8.502;2023-04-03T03:22:01;6.30;99.90
2010;DHT22;1008;47.404;8.502;2023-04-03T03:24:28;6.30;99.90
2010;DHT22;1008;47.404;8.502;2023-04-03T03:26:55;6.10;99.90
2010;DHT22;1008;47.404;8.502;2023-04-03T03:29:22;6.20;99.90
2010;DHT22;1008;47.404;8.502;2023-04-03T03:31:50;6.10;99.90
2010;DHT22;1008;47.404;8.502;2023-04-03T03:34:17;6.10;99.90
2010;DHT22;1008;47.404;8.502;2023-04-03T03:36:44;6.00;99.90
2010;DHT22;1008;47.404;8.502;2023-04-03T03:39:11;5.90;99.90
2010;DHT22;1008;47.404;8.502;2023-04-03T03:41:38;5.80;99.90
2010;DHT22;1008;47.404;8.502;2023-04-03T03:44:04;5.90;99.90
2010;DHT22;1008;47.404;8.502;2023-04-03T03:46:31;5.90;99.90
2010;DHT22;1008;47.404;8.502;2023-04-03T03:48:59;5.80;99.90
2010;DHT22;1008;47.404;8.502;2023-04-03T03:51:26;5.70;99.90
2010;DHT22;1008;47.404;8.502;2023-04-03T03:53:53;5.60;99.90
2010;DHT22;1008;47.404;8.502;2023-04-03T03:56:20;5.60;99.90
2010;DHT22;1008;47.404;8.502;2023-04-03T03:58:47;5.60;99.90
2010;DHT22;1008;47.404;8.502;2023-04-03T04:01:15;5.60;99.90
2010;DHT22;1008;47.404;8.502;2023-04-03T04:03:42;5.50;99.90
2010;DHT22;1008;47.404;8.502;2023-04-03T04:06:10;5.70;99.90
2010;DHT22;1008;47.404;8.502;2023-04-03T04:08:37;5.60;99.90
2010;DHT22;1008;47.404;8.502;2023-04-03T04:11:03;5.50;99.90
2010;DHT22;1008;47.404;8.502;2023-04-03T04:13:30;5.50;99.90
2010;DHT22;1008;47.404;8.502;2023-04-03T04:15:57;5.60;99.90
2010;DHT22;1008;47.404;8.502;2023-04-03T04:18:24;5.50;99.90
2010;DHT22;1008;47.404;8.502;2023-04-03T04:20:50;5.40;99.90
2010;DHT22;1008;47.404;8.502;2023-04-03T04:23:19;5.30;99.90
2010;DHT22;1008;47.404;8.502;2023-04-03T04:25:46;5.30;99.90
2010;DHT22;1008;47.404;8.502;2023-04-03T04:28:13;5.40;99.90
2010;DHT22;1008;47.404;8.502;2023-04-03T04:30:40;5.50;99.90
2010;DHT22;1008;47.404;8.502;2023-04-03T04:33:07;5.50;99.90
2010;DHT22;1008;47.404;8.502;2023-04-03T04:35:35;5.60;99.90
2010;DHT22;1008;47.404;8.502;2023-04-03T04:38:02;5.60;99.90
2010;DHT22;1008;47.404;8.502;2023-04-03T04:40:30;5.50;99.90
2010;DHT22;1008;47.404;8.502;2023-04-03T04:42:57;5.50;99.90
2010;DHT22;1008;47.404;8.502;2023-04-03T04:45:24;5.50;99.90
2010;DHT22;1008;47.404;8.502;2023-04-03T04:47:50;5.40;99.90
2010;DHT22;1008;47.404;8.502;2023-04-03T04:50:18;5.50;99.90
2010;DHT22;1008;47.404;8.502;2023-04-03T04:52:45;5.50;99.90
2010;DHT22;1008;47.404;8.502;2023-04-03T04:55:12;5.40;99.90
2010;DHT22;1008;47.404;8.502;2023-04-03T04:57:40;5.40;99.90
2010;DHT22;1008;47.404;8.502;2023-04-03T05:00:07;5.50;99.90
2010;DHT22;1008;47.404;8.502;2023-04-03T05:02:34;5.40;99.90
2010;DHT22;1008;47.404;8.502;2023-04-03T05:05:01;5.60;99.90
2010;DHT22;1008;47.404;8.502;2023-04-03T05:07:28;5.50;99.90
2010;DHT22;1008;47.404;8.502;2023-04-03T05:09:55;5.50;99.90
2010;DHT22;1008;47.404;8.502;2023-04-03T05:12:22;5.50;99.90
2010;DHT22;1008;47.404;8.502;2023-04-03T05:14:50;5.50;99.90
2010;DHT22;1008;47.404;8.502;2023-04-03T05:17:17;5.50;99.90
2010;DHT22;1008;47.404;8.502;2023-04-03T05:19:43;5.60;99.90
2010;DHT22;1008;47.404;8.502;2023-04-03T05:22:10;5.60;99.90
2010;DHT22;1008;47.404;8.502;2023-04-03T05:24:37;5.60;99.90
2010;DHT22;1008;47.404;8.502;2023-04-03T05:27:04;5.40;99.90
2010;DHT22;1008;47.404;8.502;2023-04-03T05:29:30;5.40;99.90
2010;DHT22;1008;47.404;8.502;2023-04-03T05:31:59;5.40;99.90
2010;DHT22;1008;47.404;8.502;2023-04-03T05:34:25;5.60;99.90
2010;DHT22;1008;47.404;8.502;2023-04-03T05:36:52;5.30;99.90
2010;DHT22;1008;47.404;8.502;2023-04-03T05:39:19;5.30;99.90
2010;DHT22;1008;47.404;8.502;2023-04-03T05:41:47;5.20;99.90
2010;DHT22;1008;47.404;8.502;2023-04-03T05:44:14;5.20;99.90
2010;DHT22;1008;47.404;8.502;2023-04-03T05:46:41;5.10;99.90
2010;DHT22;1008;47.404;8.502;2023-04-03T05:49:09;5.20;99.90
2010;DHT22;1008;47.404;8.502;2023-04-03T05:51:37;5.20;99.90
2010;DHT22;1008;47.404;8.502;2023-04-03T05:54:09;5.10;99.90
2010;DHT22;1008;47.404;8.502;2023-04-03T05:56:37;5.20;99.90
2010;DHT22;1008;47.404;8.502;2023-04-03T05:59:04;5.20;99.90
2010;DHT22;1008;47.404;8.502;2023-04-03T06:01:31;5.20;99.90
2010;DHT22;1008;47.404;8.502;2023-04-03T06:03:57;5.20;99.90
2010;DHT22;1008;47.404;8.502;2023-04-03T06:06:26;5.20;99.90
2010;DHT22;1008;47.404;8.502;2023-04-03T06:08:52;5.40;99.90
2010;DHT22;1008;47.404;8.502;2023-04-03T06:11:19;5.40;99.90
2010;DHT22;1008;47.404;8.502;2023-04-03T06:13:47;5.40;99.90
2010;DHT22;1008;47.404;8.502;2023-04-03T06:16:15;5.40;99.90
2010;DHT22;1008;47.404;8.502;2023-04-03T06:18:43;5.40;99.90
2010;DHT22;1008;47.404;8.502;2023-04-03T06:21:10;5.60;99.90
2010;DHT22;1008;47.404;8.502;2023-04-03T06:23:38;5.30;99.90
2010;DHT22;1008;47.404;8.502;2023-04-03T06:26:06;5.30;99.90
2010;DHT22;1008;47.404;8.502;2023-04-03T06:28:32;5.30;99.90
2010;DHT22;1008;47.404;8.502;2023-04-03T06:30:59;5.20;99.90
2010;DHT22;1008;47.404;8.502;2023-04-03T06:33:26;5.30;99.90
2010;DHT22;1008;47.404;8.502;2023-04-03T06:35:57;5.30;99.90
2010;DHT22;1008;47.404;8.502;2023-04-03T06:38:24;5.40;99.90
2010;DHT22;1008;47.404;8.502;2023-04-03T06:40:52;5.40;99.90
2010;DHT22;1008;47.404;8.502;2023-04-03T06:43:19;5.30;99.90
2010;DHT22;1008;47.404;8.502;2023-04-03T06:45:46;5.20;99.90
2010;DHT22;1008;47.404;8.502;2023-04-03T06:48:13;5.20;99.90
2010;DHT22;1008;47.404;8.502;2023-04-03T06:50:40;5.30;99.90
2010;DHT22;1008;47.404;8.502;2023-04-03T06:53:07;5.10;99.90
2010;DHT22;1008;47.404;8.502;2023-04-03T06:55:34;5.20;99.90
2010;DHT22;1008;47.404;8.502;2023-04-03T06:58:03;5.30;99.90
2010;DHT22;1008;47.404;8.502;2023-04-03T07:00:30;5.30;99.90
2010;DHT22;1008;47.404;8.502;2023-04-03T07:02:57;5.40;99.90
2010;DHT22;1008;47.404;8.502;2023-04-03T07:05:24;5.50;99.90
2010;DHT22;1008;47.404;8.502;2023-04-03T07:07:53;5.60;99.90
2010;DHT22;1008;47.404;8.502;2023-04-03T07:10:19;5.50;99.90
2010;DHT22;1008;47.404;8.502;2023-04-03T07:12:46;5.80;99.90
2010;DHT22;1008;47.404;8.502;2023-04-03T07:15:15;5.90;99.90
2010;DHT22;1008;47.404;8.502;2023-04-03T07:17:41;5.80;99.90
2010;DHT22;1008;47.404;8.502;2023-04-03T07:20:08;5.70;99.90
2010;DHT22;1008;47.404;8.502;2023-04-03T07:22:36;5.70;99.90
2010;DHT22;1008;47.404;8.502;2023-04-03T07:25:03;5.70;99.90
2010;DHT22;1008;47.404;8.502;2023-04-03T07:27:33;5.60;99.90
2010;DHT22;1008;47.404;8.502;2023-04-03T07:29:59;5.70;99.90
2010;DHT22;1008;47.404;8.502;2023-04-03T07:32:28;5.70;99.90
2010;DHT22;1008;47.404;8.502;2023-04-03T07:34:55;5.80;99.90
2010;DHT22;1008;47.404;8.502;2023-04-03T07:37:22;5.90;99.90
2010;DHT22;1008;47.404;8.502;2023-04-03T07:39:48;6.00;99.90
2010;DHT22;1008;47.404;8.502;2023-04-03T07:42:16;6.10;99.90
2010;DHT22;1008;47.404;8.502;2023-04-03T07:44:43;6.20;99.90
2010;DHT22;1008;47.404;8.502;2023-04-03T07:47:10;6.20;99.90
2010;DHT22;1008;47.404;8.502;2023-04-03T07:49:38;6.30;99.90
2010;DHT22;1008;47.404;8.502;2023-04-03T07:52:06;6.20;99.90
2010;DHT22;1008;47.404;8.502;2023-04-03T07:54:34;6.30;99.90
2010;DHT22;1008;47.404;8.502;2023-04-03T07:57:01;6.30;99.90
2010;DHT22;1008;47.404;8.502;2023-04-03T07:59:28;6.30;99.90
2010;DHT22;1008;47.404;8.502;2023-04-03T08:01:55;6.20;99.90
2010;DHT22;1008;47.404;8.502;2023-04-03T08:04:22;6.30;99.90
2010;DHT22;1008;47.404;8.502;2023-04-03T08:06:50;6.20;99.90
2010;DHT22;1008;47.404;8.502;2023-04-03T08:09:17;6.20;99.90
2010;DHT22;1008;47.404;8.502;2023-04-03T08:11:45;6.40;99.90
2010;DHT22;1008;47.404;8.502;2023-04-03T08:14:12;6.40;99.90
2010;DHT22;1008;47.404;8.502;2023-04-03T08:16:42;6.60;99.90
2010;DHT22;1008;47.404;8.502;2023-04-03T08:19:09;6.80;99.90
2010;DHT22;1008;47.404;8.502;2023-04-03T08:21:36;6.90;99.90
2010;DHT22;1008;47.404;8.502;2023-04-03T08:24:05;7.20;99.90
2010;DHT22;1008;47.404;8.502;2023-04-03T08:26:32;7.10;99.90
2010;DHT22;1008;47.404;8.502;2023-04-03T08:28:59;6.90;99.90
2010;DHT22;1008;47.404;8.502;2023-04-03T08:31:25;6.70;99.90
2010;DHT22;1008;47.404;8.502;2023-04-03T08:33:52;6.80;99.90
2010;DHT22;1008;47.404;8.502;2023-04-03T08:36:21;6.80;99.90
2010;DHT22;1008;47.404;8.502;2023-04-03T08:38:48;6.90;99.90
2010;DHT22;1008;47.404;8.502;2023-04-03T08:41:20;6.80;99.90
2010;DHT22;1008;47.404;8.502;2023-04-03T08:44:14;6.90;99.90
2010;DHT22;1008;47.404;8.502;2023-04-03T08:47:02;6.90;99.90
2010;DHT22;1008;47.404;8.502;2023-04-03T08:49:31;6.90;99.90
2010;DHT22;1008;47.404;8.502;2023-04-03T08:52:03;7.00;99.90
2010;DHT22;1008;47.404;8.502;2023-04-03T08:54:33;7.10;99.90
2010;DHT22;1008;47.404;8.502;2023-04-03T08:57:05;7.20;99.90
2010;DHT22;1008;47.404;8.502;2023-04-03T08:59:34;7.30;99.90
2010;DHT22;1008;47.404;8.502;2023-04-03T09:02:21;7.30;99.90
2010;DHT22;1008;47.404;8.502;2023-04-03T09:04:49;6.80;99.90
2010;DHT22;1008;47.404;8.502;2023-04-03T09:07:21;6.80;99.90
2010;DHT22;1008;47.404;8.502;2023-04-03T09:09:49;6.80;99.90
2010;DHT22;1008;47.404;8.502;2023-04-03T09:12:23;6.90;99.90
2010;DHT22;1008;47.404;8.502;2023-04-03T09:14:57;6.70;99.90
2010;DHT22;1008;47.404;8.502;2023-04-03T09:17:36;6.80;99.90
2010;DHT22;1008;47.404;8.502;2023-04-03T09:20:15;6.70;99.90
2010;DHT22;1008;47.404;8.502;2023-04-03T09:22:44;6.70;99.90
2010;DHT22;1008;47.404;8.502;2023-04-03T09:25:14;6.80;99.90
2010;DHT22;1008;47.404;8.502;2023-04-03T09:27:45;7.00;99.90
2010;DHT22;1008;47.404;8.502;2023-04-03T09:30:14;7.00;99.90
2010;DHT22;1008;47.404;8.502;2023-04-03T09:32:43;7.10;99.90
2010;DHT22;1008;47.404;8.502;2023-04-03T09:35:23;7.20;99.90
2010;DHT22;1008;47.404;8.502;2023-04-03T09:37:52;7.20;99.90
2010;DHT22;1008;47.404;8.502;2023-04-03T09:40:32;7.10;99.90
2010;DHT22;1008;47.404;8.502;2023-04-03T09:43:08;7.10;99.90
2010;DHT22;1008;47.404;8.502;2023-04-03T09:45:46;7.00;99.90
2010;DHT22;1008;47.404;8.502;2023-04-03T09:48:16;7.00;99.90
2010;DHT22;1008;47.404;8.502;2023-04-03T09:51:00;7.00;99.90
2010;DHT22;1008;47.404;8.502;2023-04-03T09:53:33;7.10;99.90
2010;DHT22;1008;47.404;8.502;2023-04-03T09:56:03;7.20;99.90
2010;DHT22;1008;47.404;8.502;2023-04-03T09:58:34;7.40;99.90
2010;DHT22;1008;47.404;8.502;2023-04-03T10:01:04;7.40;99.90
2010;DHT22;1008;47.404;8.502;2023-04-03T10:03:33;7.30;99.90
2010;DHT22;1008;47.404;8.502;2023-04-03T10:06:01;7.20;99.90
2010;DHT22;1008;47.404;8.502;2023-04-03T10:08:30;7.30;99.90
2010;DHT22;1008;47.404;8.502;2023-04-03T10:11:10;6.90;99.90
2010;DHT22;1008;47.404;8.502;2023-04-03T10:13:49;6.90;99.90
2010;DHT22;1008;47.404;8.502;2023-04-03T10:16:19;6.90;99.90
2010;DHT22;1008;47.404;8.502;2023-04-03T10:18:49;6.80;99.90
2010;DHT22;1008;47.404;8.502;2023-04-03T10:21:29;6.80;99.90
2010;DHT22;1008;47.404;8.502;2023-04-03T10:24:06;6.90;99.90
2010;DHT22;1008;47.404;8.502;2023-04-03T10:26:39;7.00;99.90
2010;DHT22;1008;47.404;8.502;2023-04-03T10:29:20;7.20;99.90
2010;DHT22;1008;47.404;8.502;2023-04-03T10:31:55;7.30;99.90
2010;DHT22;1008;47.404;8.502;2023-04-03T10:34:28;7.10;99.90
2010;DHT22;1008;47.404;8.502;2023-04-03T10:37:03;7.10;99.90
2010;DHT22;1008;47.404;8.502;2023-04-03T10:39:37;7.20;99.90
2010;DHT22;1008;47.404;8.502;2023-04-03T10:42:09;7.30;99.90
2010;DHT22;1008;47.404;8.502;2023-04-03T10:44:52;7.30;99.90
2010;DHT22;1008;47.404;8.502;2023-04-03T10:47:24;7.50;99.90
2010;DHT22;1008;47.404;8.502;2023-04-03T10:50:02;7.50;99.90
2010;DHT22;1008;47.404;8.502;2023-04-03T10:52:40;7.60;99.90
2010;DHT22;1008;47.404;8.502;2023-04-03T10:55:24;7.50;99.90
2010;DHT22;1008;47.404;8.502;2023-04-03T10:57:56;7.50;99.90
2010;DHT22;1008;47.404;8.502;2023-04-03T11:00:31;7.50;99.90
2010;DHT22;1008;47.404;8.502;2023-04-03T11:03:03;7.40;99.90
2010;DHT22;1008;47.404;8.502;2023-04-03T11:05:36;7.50;99.90
2010;DHT22;1008;47.404;8.502;2023-04-03T11:08:08;7.50;99.90
2010;DHT22;1008;47.404;8.502;2023-04-03T11:10:41;7.60;99.90
2010;DHT22;1008;47.404;8.502;2023-04-03T11:13:11;7.70;99.90
2010;DHT22;1008;47.404;8.502;2023-04-03T11:15:41;7.70;99.90
2010;DHT22;1008;47.404;8.502;2023-04-03T11:18:12;7.90;99.90
2010;DHT22;1008;47.404;8.502;2023-04-03T11:20:43;7.90;99.90
2010;DHT22;1008;47.404;8.502;2023-04-03T11:23:19;8.00;99.90
2010;DHT22;1008;47.404;8.502;2023-04-03T11:25:51;8.00;99.90
2010;DHT22;1008;47.404;8.502;2023-04-03T11:28:18;7.80;99.90
2010;DHT22;1008;47.404;8.502;2023-04-03T11:30:50;7.70;99.90
2010;DHT22;1008;47.404;8.502;2023-04-03T11:33:39;7.60;99.90
2010;DHT22;1008;47.404;8.502;2023-04-03T11:36:11;7.60;99.90
2010;DHT22;1008;47.404;8.502;2023-04-03T11:38:42;7.60;99.90
2010;DHT22;1008;47.404;8.502;2023-04-03T11:41:10;7.40;99.90
2010;DHT22;1008;47.404;8.502;2023-04-03T11:43:41;7.50;99.90
2010;DHT22;1008;47.404;8.502;2023-04-03T11:46:09;7.60;99.90
2010;DHT22;1008;47.404;8.502;2023-04-03T11:48:50;7.50;99.90
2010;DHT22;1008;47.404;8.502;2023-04-03T11:51:42;7.40;99.90
2010;DHT22;1008;47.404;8.502;2023-04-03T11:57:46;7.40;99.90
2010;DHT22;1008;47.404;8.502;2023-04-03T12:06:54;7.50;99.90
2010;DHT22;1008;47.404;8.502;2023-04-03T12:09:54;7.60;99.90
2010;DHT22;1008;47.404;8.502;2023-04-03T12:12:28;7.70;99.90
2010;DHT22;1008;47.404;8.502;2023-04-03T12:14:55;7.80;99.90
2010;DHT22;1008;47.404;8.502;2023-04-03T12:17:38;7.90;99.90
2010;DHT22;1008;47.404;8.502;2023-04-03T12:23:24;8.00;99.90
2010;DHT22;1008;47.404;8.502;2023-04-03T12:25:52;8.00;99.90
2010;DHT22;1008;47.404;8.502;2023-04-03T12:28:26;8.20;99.90
2010;DHT22;1008;47.404;8.502;2023-04-03T12:30:53;8.30;99.90
2010;DHT22;1008;47.404;8.502;2023-04-03T12:33:30;8.30;99.90
2010;DHT22;1008;47.404;8.502;2023-04-03T12:36:05;8.30;99.90
2010;DHT22;1008;47.404;8.502;2023-04-03T12:38:54;8.00;99.90
2010;DHT22;1008;47.404;8.502;2023-04-03T12:41:32;8.20;99.90
2010;DHT22;1008;47.404;8.502;2023-04-03T12:44:26;8.20;99.90
2010;DHT22;1008;47.404;8.502;2023-04-03T12:47:00;8.20;99.90
2010;DHT22;1008;47.404;8.502;2023-04-03T12:49:35;8.30;99.90
2010;DHT22;1008;47.404;8.502;2023-04-03T12:52:05;8.40;99.90
2010;DHT22;1008;47.404;8.502;2023-04-03T12:54:45;8.30;99.90
2010;DHT22;1008;47.404;8.502;2023-04-03T12:57:17;8.30;99.90
2010;DHT22;1008;47.404;8.502;2023-04-03T12:59:44;8.40;99.90
2010;DHT22;1008;47.404;8.502;2023-04-03T13:02:22;8.40;99.90
2010;DHT22;1008;47.404;8.502;2023-04-03T13:04:50;8.40;99.90
2010;DHT22;1008;47.404;8.502;2023-04-03T13:07:22;8.40;99.90
2010;DHT22;1008;47.404;8.502;2023-04-03T13:10:09;8.50;99.90
2010;DHT22;1008;47.404;8.502;2023-04-03T13:12:47;8.70;99.90
2010;DHT22;1008;47.404;8.502;2023-04-03T13:15:17;8.80;99.90
2010;DHT22;1008;47.404;8.502;2023-04-03T13:17:44;8.80;99.90
2010;DHT22;1008;47.404;8.502;2023-04-03T13:20:19;9.00;99.90
2010;DHT22;1008;47.404;8.502;2023-04-03T13:22:53;8.90;99.90
2010;DHT22;1008;47.404;8.502;2023-04-03T13:25:24;8.90;99.90
2010;DHT22;1008;47.404;8.502;2023-04-03T13:27:52;8.80;99.90
2010;DHT22;1008;47.404;8.502;2023-04-03T13:30:23;8.80;99.90
2010;DHT22;1008;47.404;8.502;2023-04-03T13:32:51;8.60;99.90
2010;DHT22;1008;47.404;8.502;2023-04-03T13:35:26;8.60;99.90
2010;DHT22;1008;47.404;8.502;2023-04-03T13:37:54;8.40;99.90
2010;DHT22;1008;47.404;8.502;2023-04-03T13:40:23;8.30;99.90
2010;DHT22;1008;47.404;8.502;2023-04-03T13:43:03;8.30;99.90
2010;DHT22;1008;47.404;8.502;2023-04-03T13:45:31;8.30;99.90
2010;DHT22;1008;47.404;8.502;2023-04-03T13:48:16;8.20;99.90
2010;DHT22;1008;47.404;8.502;2023-04-03T13:50:54;8.30;99.90
2010;DHT22;1008;47.404;8.502;2023-04-03T13:53:21;8.20;99.90
2010;DHT22;1008;47.404;8.502;2023-04-03T13:55:56;8.10;99.90
2010;DHT22;1008;47.404;8.502;2023-04-03T13:58:25;8.10;99.90
2010;DHT22;1008;47.404;8.502;2023-04-03T14:00:53;8.20;99.90
2010;DHT22;1008;47.404;8.502;2023-04-03T14:03:22;8.10;99.90
2010;DHT22;1008;47.404;8.502;2023-04-03T14:05:49;8.10;99.90
2010;DHT22;1008;47.404;8.502;2023-04-03T14:08:16;8.50;99.90
2010;DHT22;1008;47.404;8.502;2023-04-03T14:10:43;8.20;99.90
2010;DHT22;1008;47.404;8.502;2023-04-03T14:13:14;8.20;99.90
2010;DHT22;1008;47.404;8.502;2023-04-03T14:15:41;8.20;99.90
2010;DHT22;1008;47.404;8.502;2023-04-03T14:18:11;8.00;99.90
2010;DHT22;1008;47.404;8.502;2023-04-03T14:20:37;8.00;99.90
2010;DHT22;1008;47.404;8.502;2023-04-03T14:23:04;7.90;99.90
2010;DHT22;1008;47.404;8.502;2023-04-03T14:25:32;7.80;99.90
2010;DHT22;1008;47.404;8.502;2023-04-03T14:27:59;7.90;99.90
2010;DHT22;1008;47.404;8.502;2023-04-03T14:30:30;7.90;99.90
2010;DHT22;1008;47.404;8.502;2023-04-03T14:32:58;7.90;99.90
2010;DHT22;1008;47.404;8.502;2023-04-03T14:35:26;7.80;99.90
2010;DHT22;1008;47.404;8.502;2023-04-03T14:37:53;7.70;99.90
2010;DHT22;1008;47.404;8.502;2023-04-03T14:40:23;7.70;99.90
2010;DHT22;1008;47.404;8.502;2023-04-03T14:42:50;7.70;99.90
2010;DHT22;1008;47.404;8.502;2023-04-03T14:45:21;7.70;99.90
2010;DHT22;1008;47.404;8.502;2023-04-03T14:47:51;7.60;99.90
2010;DHT22;1008;47.404;8.502;2023-04-03T14:50:20;7.60;99.90
2010;DHT22;1008;47.404;8.502;2023-04-03T14:52:48;7.60;99.90
2010;DHT22;1008;47.404;8.502;2023-04-03T14:55:17;7.70;99.90
2010;DHT22;1008;47.404;8.502;2023-04-03T14:57:43;7.50;99.90
2010;DHT22;1008;47.404;8.502;2023-04-03T15:00:14;7.50;99.90
2010;DHT22;1008;47.404;8.502;2023-04-03T15:02:41;7.60;99.90
2010;DHT22;1008;47.404;8.502;2023-04-03T15:05:11;7.60;99.90
2010;DHT22;1008;47.404;8.502;2023-04-03T15:07:41;7.60;99.90
2010;DHT22;1008;47.404;8.502;2023-04-03T15:10:17;7.60;99.90
2010;DHT22;1008;47.404;8.502;2023-04-03T15:12:44;7.70;99.90
2010;DHT22;1008;47.404;8.502;2023-04-03T15:15:11;7.90;99.90
2010;DHT22;1008;47.404;8.502;2023-04-03T15:17:38;7.70;99.90
2010;DHT22;1008;47.404;8.502;2023-04-03T15:20:14;7.70;99.90
2010;DHT22;1008;47.404;8.502;2023-04-03T15:22:41;7.80;99.90
2010;DHT22;1008;47.404;8.502;2023-04-03T15:25:09;7.70;99.90
2010;DHT22;1008;47.404;8.502;2023-04-03T15:27:36;7.50;99.90
2010;DHT22;1008;47.404;8.502;2023-04-03T15:30:05;7.60;99.90
2010;DHT22;1008;47.404;8.502;2023-04-03T15:32:34;7.60;99.90
2010;DHT22;1008;47.404;8.502;2023-04-03T15:35:01;7.70;99.90
2010;DHT22;1008;47.404;8.502;2023-04-03T15:37:29;7.60;99.90
2010;DHT22;1008;47.404;8.502;2023-04-03T15:39:56;7.50;99.90
2010;DHT22;1008;47.404;8.502;2023-04-03T15:42:23;7.60;99.90
2010;DHT22;1008;47.404;8.502;2023-04-03T15:44:50;7.60;99.90
2010;DHT22;1008;47.404;8.502;2023-04-03T15:47:16;7.60;99.90
2010;DHT22;1008;47.404;8.502;2023-04-03T15:49:43;7.70;99.90
2010;DHT22;1008;47.404;8.502;2023-04-03T15:52:10;7.50;99.90
2010;DHT22;1008;47.404;8.502;2023-04-03T15:54:38;7.40;99.90
2010;DHT22;1008;47.404;8.502;2023-04-03T15:57:05;7.40;99.90
2010;DHT22;1008;47.404;8.502;2023-04-03T15:59:32;7.40;99.90
2010;DHT22;1008;47.404;8.502;2023-04-03T16:02:00;7.40;99.90
2010;DHT22;1008;47.404;8.502;2023-04-03T16:04:28;7.40;99.90
2010;DHT22;1008;47.404;8.502;2023-04-03T16:06:55;7.30;99.90
2010;DHT22;1008;47.404;8.502;2023-04-03T16:09:22;7.30;99.90
2010;DHT22;1008;47.404;8.502;2023-04-03T16:11:50;7.30;99.90
2010;DHT22;1008;47.404;8.502;2023-04-03T16:14:17;7.30;99.90
2010;DHT22;1008;47.404;8.502;2023-04-03T16:16:44;7.20;99.90
2010;DHT22;1008;47.404;8.502;2023-04-03T16:19:10;7.10;99.90
2010;DHT22;1008;47.404;8.502;2023-04-03T16:21:38;7.10;99.90
2010;DHT22;1008;47.404;8.502;2023-04-03T16:24:05;7.00;99.90
2010;DHT22;1008;47.404;8.502;2023-04-03T16:26:35;7.40;99.90
2010;DHT22;1008;47.404;8.502;2023-04-03T16:29:03;7.00;99.90
2010;DHT22;1008;47.404;8.502;2023-04-03T16:31:32;7.30;99.90
2010;DHT22;1008;47.404;8.502;2023-04-03T16:34:00;7.10;99.90
2010;DHT22;1008;47.404;8.502;2023-04-03T16:36:29;7.00;99.90
2010;DHT22;1008;47.404;8.502;2023-04-03T16:38:56;7.10;99.90
2010;DHT22;1008;47.404;8.502;2023-04-03T16:41:22;7.10;99.90
2010;DHT22;1008;47.404;8.502;2023-04-03T16:43:49;7.20;99.90
2010;DHT22;1008;47.404;8.502;2023-04-03T16:46:17;7.20;99.90